Station info - map view · info · telemetry · weather · raw · status · beacons · messages · bulletins · browse · moving · my account
Callsign, ship name or locator: Clear       
It is possible to search using wildcards (*?) after a prefix. Example: OH*
APRS station WA4IJU-2 - show graphs
Map loading...
Mic-E message: In service
Location: 36°40.15' N 88°19.83' W - locator EM56UQ00IO - show map - static map
4.2 miles North bearing 348° from Murray, Calloway County, Kentucky, United States [?]
13.0 miles South bearing 175° from Benton, Marshall County, Kentucky, United States
54.7 miles West bearing 280° from Clarksville, Montgomery County, Tennessee, United States
77.6 miles North bearing 20° from Jackson, Madison County, Tennessee, United States
Last position: 2017-01-24 15:49:18 EST (4h38m ago)
2017-01-24 14:49:18 CST local time at Murray, United States [?]
Altitude: 558 ft
Course: 263°
Speed: 8 MPH
Device: Kenwood: TM-D710 (rig)
Last path: WA4IJU-2>S6TP1U via WIDE1-1,WIDE2-1,qAR,KJ4W (good)
Positions stored: 14940
Packet rate: 110 seconds between packets on average during 5506 seconds.
Other SSIDs: WA4IJU-1
Stations near current position of WA4IJU-2 - show more
callsign distance last heard - EST      callsign distance last heard - EST
KJ4W-226.5 yards 219°2017-01-23 12:31:33 KJ4W52.4 yards 218°2017-01-24 20:13:50
KJ4W-352.4 yards 218°2017-01-22 13:28:51 KJ4W-13.6 miles 174°2017-01-24 20:26:45
K4MSU-33.9 miles 173°2017-01-24 20:20:50 WIR 183953.9 miles 173°2017-01-24 20:20:00
KJ4TKH-94.0 miles 31°2017-01-24 17:47:54 KK4BKD-94.6 miles 162°2017-01-24 19:23:00
KJ4HBK-144.9 miles 202°2017-01-24 17:20:21 DW64628.7 miles 115°2017-01-24 20:26:26
W4ETJ-99.4 miles 171°2017-01-24 16:49:14 W4AW9.7 miles 171°2017-01-23 21:49:36
WB8SKP-411.8 miles 68°2017-01-24 20:18:00 WB8SKP-WX11.8 miles 68°2017-01-04 15:27:56
WB8SKP-111.8 miles 68°2017-01-20 22:15:53 W8IBT-911.8 miles 68°2017-01-24 18:33:53
W8IBT-112.3 miles 74°2017-01-05 10:47:19 KA4WWS13.8 miles 352°2017-01-04 10:02:48
KJ4CO-120.4 miles 311°2017-01-24 19:30:34 KJ4CO20.4 miles 311°2017-01-24 20:27:52
Stations which heard WA4IJU-2 directly on radio –
callsign pkts first heard - EST last heard longest (tx => rx) longest at - EST
NT4UX-3 28 2017-01-20 12:56:05 2017-01-22 12:56:11 EM66RE > EM66NG 21.0 miles 287° 2017-01-22 11:44:39
AA4VU-1 7 2017-01-20 13:15:28 2017-01-22 11:59:27 EM66OF > EM66OD 5.1 miles 199° 2017-01-22 11:59:27
W1ARN-1 45 2017-01-20 13:12:33 2017-01-22 12:03:04 EM76BD > EM66SL 39.2 miles 303° 2017-01-22 11:14:02
KJ4W 445 2016-12-31 20:18:07 2017-01-24 15:48:48 EM56WS > EM56UQ 14.9 miles 240° 2017-01-22 14:10:39
K4MSU-3 267 2016-12-31 20:02:41 2017-01-24 15:42:19 EM56UK > EM56UO 12.5 miles 3° 2016-12-31 20:02:41
WB8SKP 27 2017-01-06 14:34:44 2017-01-24 14:58:48 EM56TT > EM56WR 14.3 miles 115° 2017-01-24 14:48:56
W4KCO-3 1 2017-01-22 10:02:30 2017-01-22 10:02:30 EM75PV > EM75MF 47.2 miles 200° 2017-01-22 10:02:30
WB8SKP-1 4 2017-01-20 11:25:39 2017-01-20 11:37:41 EM56VP > EM56WR 8.5 miles 48° 2017-01-20 11:25:39
WD4INS-4 43 2017-01-20 11:41:11 2017-01-22 14:06:55 EM66GQ > EM67DB 27.4 miles 332° 2017-01-20 12:19:33
KE4OTZ-3 38 2017-01-20 15:54:12 2017-01-22 10:01:30 EM75PV > EM85BP 50.4 miles 108° 2017-01-20 15:54:12
PADKY 22 2017-01-09 10:49:13 2017-01-24 14:25:02 EM57RA > EM57QB 4.9 miles 305° 2017-01-24 14:25:02
K4MSU-5 29 2017-01-09 10:14:47 2017-01-24 14:55:09 EM56QT > EM56WW 31.7 miles 73° 2017-01-24 10:27:24
KA4BNI-5 3 2016-12-31 19:07:10 2017-01-18 14:35:28 EM56UP > EM55RS 60.8 miles 191° 2017-01-18 14:35:28
KC4OJS-3 2 2017-01-20 15:44:34 2017-01-22 10:13:42 EM75MW > EM75UH 55.1 miles 140° 2017-01-20 15:44:34
K4UAN-3 40 2017-01-20 14:25:25 2017-01-22 11:24:09 EM66WE > EM76HB 41.6 miles 98° 2017-01-20 14:25:25
KG4CKR-2 4 2017-01-20 12:18:01 2017-01-22 13:34:41 EM66GQ > EM66GV 13.7 miles 351° 2017-01-22 13:20:13
KQ4TV-7 3 2017-01-20 14:10:33 2017-01-22 11:42:39 EM66TE > EM66SF 4.7 miles 313° 2017-01-20 14:10:33
N9SIR-1 5 2017-01-20 16:49:50 2017-01-22 09:10:43 EM85EW > EM86EA 5.7 miles 316° 2017-01-20 16:58:00
W8EYU-4 21 2017-01-20 15:16:39 2017-01-22 10:31:34 EM76KB > EM75MX 10.3 miles 123° 2017-01-20 15:16:39
KI4HDU-3 5 2017-01-22 08:59:31 2017-01-22 09:07:43 EM85EX > EM85FW 4.3 miles 114° 2017-01-22 09:07:43
K3JAE-1 1 2016-12-31 19:22:24 2016-12-31 19:22:24 EM56WB > EM56VA 7.3 miles 263° 2016-12-31 19:22:24

Only position packets which were originated by the station are shown here. The range statistics show some extra long hops, because some digipeaters do not correctly add themselves to the digipeater path. Please check the raw packets.
About this site
This page shows real-time information collected from the Automatic Position Reporting System Internet network (APRS-IS). APRS is used by amateur (ham) radio operators to transmit real-time position information, weather data, telemetry and messages over the radio. A vehicle equipped with a GPS receiver, a VHF transmitter or HF transceiver and a small computer device called a tracker transmits it's location, speed and course in a small data packet, which is then received by a nearby iGate receiving site which forwards the packet on the Internet. Systems connected to the Internet can send information on the APRS-IS without a radio transmitter, or collect and display information transmitted anywhere in the world.
FAQ · Blog · Discussion group · Linking to aprs.fi · AIS sites · Service status · Database statistics · Advertising on aprs.fi · Technical details · API · Change log · Planned changes · Credits and thanks · Terms Of Service · iPhone/iPad APRS